createdAt,value
2018-06-05T00:02:01.200Z,19.56
2018-06-05T00:04:28.345Z,19.36
2018-06-05T00:06:55.481Z,18.96
2018-06-05T00:09:22.629Z,18.38
2018-06-05T00:11:49.759Z,18.16
2018-06-05T00:14:16.909Z,18.48
2018-06-05T00:16:44.063Z,18.32
2018-06-05T00:19:11.236Z,18.59
2018-06-05T00:21:38.425Z,18.41
2018-06-05T00:24:05.636Z,18.61
2018-06-05T00:26:32.825Z,18.60
2018-06-05T00:28:59.999Z,18.87
2018-06-05T00:31:27.160Z,18.72
2018-06-05T00:33:54.370Z,18.23
2018-06-05T00:36:21.554Z,18.43
2018-06-05T00:38:48.724Z,18.65
2018-06-05T00:41:15.864Z,18.54
2018-06-05T00:43:43.032Z,18.18
2018-06-05T00:46:10.242Z,18.09
2018-06-05T00:48:37.421Z,18.24
2018-06-05T00:51:16.014Z,18.14
2018-06-05T00:53:43.188Z,17.99
2018-06-05T00:56:10.343Z,18.18
2018-06-05T00:58:37.486Z,18.21
2018-06-05T01:01:04.669Z,18.23
2018-06-05T01:03:31.857Z,18.41
2018-06-05T01:05:59.080Z,18.02
2018-06-05T01:08:26.256Z,17.89
2018-06-05T01:10:53.404Z,17.43
2018-06-05T01:13:20.583Z,17.42
2018-06-05T01:15:47.741Z,17.65
2018-06-05T01:18:14.897Z,17.61
2018-06-05T01:20:42.032Z,17.82
2018-06-05T01:23:09.176Z,17.93
2018-06-05T01:25:36.380Z,18.08
2018-06-05T01:28:03.543Z,17.87
2018-06-05T01:30:30.777Z,17.23
2018-06-05T01:32:57.975Z,17.65
2018-06-05T01:35:25.536Z,17.70
2018-06-05T01:37:52.711Z,17.82
2018-06-05T01:40:19.867Z,17.92
2018-06-05T01:42:47.037Z,17.97
2018-06-05T01:45:14.217Z,17.66
2018-06-05T01:47:41.377Z,17.73
2018-06-05T01:50:08.519Z,17.13
2018-06-05T01:52:35.696Z,17.30
2018-06-05T01:55:03.007Z,17.58
2018-06-05T01:57:30.150Z,17.55
2018-06-05T01:59:57.359Z,17.51
2018-06-05T02:02:24.534Z,17.10
2018-06-05T02:04:51.680Z,16.83
2018-06-05T02:07:18.845Z,16.53
2018-06-05T02:09:45.977Z,16.96
2018-06-05T02:12:13.102Z,16.70
2018-06-05T02:14:40.228Z,17.07
2018-06-05T02:17:07.340Z,17.12
2018-06-05T02:19:34.533Z,17.03
2018-06-05T02:22:01.672Z,17.22
2018-06-05T02:24:28.845Z,17.31
2018-06-05T02:26:55.993Z,17.07
2018-06-05T02:29:23.204Z,16.89
2018-06-05T02:31:50.328Z,16.68
2018-06-05T02:34:17.546Z,16.44
2018-06-05T02:36:44.667Z,16.20
2018-06-05T02:39:12.209Z,16.34
2018-06-05T02:41:39.308Z,16.43
2018-06-05T02:44:06.529Z,16.65
2018-06-05T02:46:33.662Z,16.55
2018-06-05T02:49:00.801Z,16.14
2018-06-05T02:51:27.929Z,16.03
2018-06-05T02:53:55.028Z,16.19
2018-06-05T02:56:22.179Z,16.57
2018-06-05T02:58:50.137Z,16.41
2018-06-05T03:01:17.352Z,16.32
2018-06-05T03:03:44.515Z,16.36
2018-06-05T03:06:11.659Z,16.28
2018-06-05T03:08:38.806Z,16.51
2018-06-05T03:11:06.000Z,16.44
2018-06-05T03:13:33.185Z,16.37
2018-06-05T03:16:00.311Z,15.50
2018-06-05T03:18:27.443Z,16.23
2018-06-05T03:20:54.567Z,15.89
2018-06-05T03:23:21.861Z,16.30
2018-06-05T03:25:49.036Z,16.40
2018-06-05T03:28:16.169Z,16.65
2018-06-05T03:30:43.369Z,16.55
2018-06-05T03:33:10.517Z,16.52
2018-06-05T03:35:37.717Z,16.74
2018-06-05T03:38:04.829Z,16.58
2018-06-05T03:40:31.908Z,16.43
2018-06-05T03:42:59.038Z,16.55
2018-06-05T03:45:26.143Z,16.54
2018-06-05T03:47:53.252Z,16.57
2018-06-05T03:50:20.332Z,16.59
2018-06-05T03:52:47.468Z,16.53
2018-06-05T03:55:14.572Z,16.64
2018-06-05T03:57:41.760Z,16.50
2018-06-05T04:00:08.945Z,16.34
2018-06-05T04:02:36.128Z,16.43
2018-06-05T04:05:03.244Z,15.98
2018-06-05T04:07:30.425Z,16.22
2018-06-05T04:09:57.605Z,16.19
2018-06-05T04:12:24.711Z,16.38
2018-06-05T04:14:51.837Z,16.52
2018-06-05T04:17:18.951Z,16.60
2018-06-05T04:19:46.212Z,16.75
2018-06-05T04:22:13.328Z,16.77
2018-06-05T04:24:40.450Z,16.71
2018-06-05T04:27:07.700Z,16.93
2018-06-05T04:29:34.812Z,17.05
2018-06-05T04:32:02.045Z,16.99
2018-06-05T04:34:29.128Z,16.73
2018-06-05T04:36:56.308Z,16.60
2018-06-05T04:39:23.557Z,16.75
2018-06-05T04:41:50.704Z,16.99
2018-06-05T04:44:17.836Z,17.39
2018-06-05T04:46:44.953Z,17.36
2018-06-05T04:49:12.121Z,17.17
2018-06-05T04:51:39.235Z,17.16
2018-06-05T04:54:06.386Z,17.44
2018-06-05T04:56:33.594Z,17.48
2018-06-05T04:59:00.711Z,17.88
2018-06-05T05:01:27.837Z,17.99
2018-06-05T05:03:54.961Z,18.25
2018-06-05T05:06:22.109Z,18.33
2018-06-05T05:08:49.272Z,18.41
2018-06-05T05:11:16.385Z,18.65
2018-06-05T05:13:43.525Z,18.55
2018-06-05T05:16:10.695Z,18.62
2018-06-05T05:18:37.844Z,18.81
2018-06-05T05:21:05.000Z,19.10
2018-06-05T05:23:32.152Z,19.32
2018-06-05T05:25:59.320Z,19.52
2018-06-05T05:28:26.433Z,19.62
2018-06-05T05:30:53.602Z,19.51
2018-06-05T05:33:20.737Z,19.71
2018-06-05T05:35:47.896Z,19.74
2018-06-05T05:38:15.039Z,19.59
2018-06-05T05:40:42.190Z,19.54
2018-06-05T05:43:09.352Z,19.82
2018-06-05T05:45:36.473Z,19.90
2018-06-05T05:48:03.653Z,19.83
2018-06-05T05:50:30.768Z,19.71
2018-06-05T05:52:57.913Z,20.05
2018-06-05T05:55:25.029Z,20.18
2018-06-05T05:57:52.181Z,20.65
2018-06-05T06:00:19.333Z,20.63
2018-06-05T06:02:46.471Z,21.17
2018-06-05T06:05:13.593Z,21.33
2018-06-05T06:07:40.696Z,21.02
2018-06-05T06:10:07.845Z,21.16
2018-06-05T06:12:34.985Z,21.12
2018-06-05T06:15:02.176Z,21.41
2018-06-05T06:17:29.277Z,21.96
2018-06-05T06:19:56.396Z,22.24
2018-06-05T06:22:23.549Z,22.47
2018-06-05T06:24:50.722Z,22.74
2018-06-05T06:27:17.845Z,22.42
2018-06-05T06:29:45.020Z,22.31
2018-06-05T06:32:12.236Z,22.21
2018-06-05T06:34:39.364Z,22.42
2018-06-05T06:37:06.471Z,22.91
2018-06-05T06:39:33.614Z,23.49
2018-06-05T06:42:00.739Z,23.93
2018-06-05T06:44:27.893Z,24.30
2018-06-05T06:46:55.037Z,24.13
2018-06-05T06:49:22.133Z,23.25
2018-06-05T06:51:49.241Z,23.21
2018-06-05T06:54:16.352Z,23.76
2018-06-05T06:56:43.544Z,24.18
2018-06-05T06:59:10.702Z,24.41
2018-06-05T07:01:37.860Z,23.89
2018-06-05T07:04:05.023Z,23.81
2018-06-05T07:06:32.132Z,24.34
2018-06-05T07:08:59.268Z,24.24
2018-06-05T07:11:26.433Z,24.35
2018-06-05T07:13:53.604Z,24.74
2018-06-05T07:16:20.688Z,24.21
2018-06-05T07:18:47.936Z,24.71
2018-06-05T07:21:15.096Z,25.27
2018-06-05T07:23:42.271Z,25.57
2018-06-05T07:26:09.439Z,25.11
2018-06-05T07:28:36.614Z,25.51
2018-06-05T07:31:03.750Z,25.60
2018-06-05T07:33:30.873Z,26.00
2018-06-05T07:35:58.058Z,26.09
2018-06-05T07:38:25.186Z,26.07
2018-06-05T07:40:52.349Z,26.29
2018-06-05T07:43:19.541Z,26.48
2018-06-05T07:45:46.688Z,26.22
2018-06-05T07:48:13.830Z,26.54
2018-06-05T07:50:40.972Z,25.26
2018-06-05T07:53:08.124Z,25.58
2018-06-05T07:55:35.257Z,26.21
2018-06-05T07:58:02.450Z,26.73
2018-06-05T08:00:29.555Z,26.93
2018-06-05T08:02:56.670Z,27.11
2018-06-05T08:05:23.750Z,27.25
2018-06-05T08:07:50.897Z,27.02
2018-06-05T08:10:18.073Z,27.05
2018-06-05T08:12:45.197Z,26.21
2018-06-05T08:15:12.394Z,26.88
2018-06-05T08:17:39.557Z,26.17
2018-06-05T08:20:06.699Z,26.54
2018-06-05T08:22:45.833Z,27.24
2018-06-05T08:25:12.999Z,27.48
2018-06-05T08:27:40.153Z,27.13
2018-06-05T08:30:07.292Z,26.62
2018-06-05T08:32:34.408Z,27.53
2018-06-05T08:35:01.522Z,27.38
2018-06-05T08:37:28.657Z,27.32
2018-06-05T08:39:55.823Z,27.03
2018-06-05T08:42:22.962Z,26.70
2018-06-05T08:44:50.143Z,27.78
2018-06-05T08:47:17.311Z,27.07
2018-06-05T08:49:44.504Z,26.68
2018-06-05T08:52:11.641Z,26.92
2018-06-05T08:54:38.808Z,26.85
2018-06-05T08:57:06.016Z,26.80
2018-06-05T08:59:33.192Z,26.71
2018-06-05T09:02:00.333Z,26.83
2018-06-05T09:04:27.535Z,27.13
2018-06-05T09:06:54.687Z,27.85
2018-06-05T09:09:21.849Z,28.22
2018-06-05T09:11:48.976Z,27.31
2018-06-05T09:14:16.095Z,26.99
2018-06-05T09:16:43.255Z,27.22
2018-06-05T09:19:10.359Z,27.00
2018-06-05T09:21:37.490Z,27.99
2018-06-05T09:24:04.648Z,28.08
2018-06-05T09:26:31.793Z,27.08
2018-06-05T09:28:58.984Z,27.60
2018-06-05T09:31:26.086Z,27.20
2018-06-05T09:33:53.232Z,26.75
2018-06-05T09:36:20.356Z,26.57
2018-06-05T09:38:47.484Z,26.71
2018-06-05T09:41:14.630Z,26.79
2018-06-05T09:43:41.761Z,27.09
2018-06-05T09:46:08.968Z,27.51
2018-06-05T09:48:36.092Z,26.95
2018-06-05T09:51:03.297Z,27.34
2018-06-05T09:53:30.429Z,27.63
2018-06-05T09:55:57.591Z,27.87
2018-06-05T09:58:24.899Z,28.32
2018-06-05T10:00:52.732Z,28.58
2018-06-05T10:03:20.565Z,27.34
2018-06-05T10:05:47.776Z,28.35
2018-06-05T10:08:14.956Z,28.18
2018-06-05T10:10:42.092Z,28.61
2018-06-05T10:13:09.330Z,27.85
2018-06-05T10:15:36.511Z,27.58
2018-06-05T10:18:03.985Z,26.49
2018-06-05T10:20:31.129Z,26.47
2018-06-05T10:22:58.248Z,25.97
2018-06-05T10:25:25.396Z,26.64
2018-06-05T10:27:52.565Z,27.09
2018-06-05T10:30:19.720Z,27.46
2018-06-05T10:32:46.888Z,26.78
2018-06-05T10:35:14.010Z,27.50
2018-06-05T10:37:41.172Z,27.44
2018-06-05T10:40:08.335Z,27.27
2018-06-05T10:42:35.483Z,27.29
2018-06-05T10:45:02.753Z,27.45
2018-06-05T10:47:29.926Z,27.70
2018-06-05T10:49:57.067Z,28.35
2018-06-05T10:52:24.213Z,28.63
2018-06-05T10:54:51.327Z,28.63
2018-06-05T10:57:18.530Z,28.00
2018-06-05T10:59:45.699Z,27.89
2018-06-05T11:02:12.873Z,27.58
2018-06-05T11:04:40.040Z,28.13
2018-06-05T11:07:07.177Z,28.70
2018-06-05T11:09:34.272Z,28.89
2018-06-05T11:12:01.414Z,28.45
2018-06-05T11:14:28.574Z,29.14
2018-06-05T11:16:55.729Z,27.63
2018-06-05T11:19:22.848Z,27.49
2018-06-05T11:21:50.035Z,27.39
2018-06-05T11:24:17.177Z,27.27
2018-06-05T11:26:44.301Z,27.50
2018-06-05T11:29:11.435Z,27.95
2018-06-05T11:31:38.590Z,28.81
2018-06-05T11:34:05.753Z,27.52
2018-06-05T11:36:32.969Z,26.93
2018-06-05T11:39:00.065Z,27.09
2018-06-05T11:41:27.236Z,27.45
2018-06-05T11:43:54.371Z,27.72
2018-06-05T11:46:21.520Z,27.83
2018-06-05T11:48:48.645Z,27.68
2018-06-05T11:51:15.809Z,28.51
2018-06-05T11:53:42.905Z,28.69
2018-06-05T11:56:10.011Z,28.98
2018-06-05T11:58:37.181Z,29.06
2018-06-05T12:01:04.376Z,29.22
2018-06-05T12:03:31.565Z,28.71
2018-06-05T12:05:59.508Z,28.29
2018-06-05T12:08:26.684Z,28.54
2018-06-05T12:10:53.798Z,28.66
2018-06-05T12:13:20.990Z,29.80
2018-06-05T12:15:48.185Z,29.62
2018-06-05T12:18:15.364Z,30.60
2018-06-05T12:20:42.500Z,30.40
2018-06-05T12:23:09.373Z,28.57
2018-06-05T12:25:36.582Z,29.27
2018-06-05T12:28:03.732Z,29.13
2018-06-05T12:30:30.907Z,28.65
2018-06-05T12:32:58.082Z,28.85
2018-06-05T12:35:25.256Z,29.08
2018-06-05T12:37:52.417Z,29.56
2018-06-05T12:40:19.596Z,29.25
2018-06-05T12:42:46.728Z,30.27
2018-06-05T12:45:13.892Z,30.47
2018-06-05T12:47:41.051Z,29.90
2018-06-05T12:50:08.168Z,30.31
2018-06-05T12:52:35.321Z,30.81
2018-06-05T12:55:02.492Z,29.48
2018-06-05T12:57:29.669Z,29.80
2018-06-05T12:59:58.846Z,30.06
2018-06-05T13:02:26.052Z,29.82
2018-06-05T13:04:53.231Z,29.54
2018-06-05T13:07:20.408Z,29.17
2018-06-05T13:09:47.541Z,28.89
2018-06-05T13:12:14.681Z,28.61
2018-06-05T13:14:41.880Z,29.28
2018-06-05T13:17:09.013Z,28.53
2018-06-05T13:19:36.185Z,28.75
2018-06-05T13:22:03.388Z,28.94
2018-06-05T13:24:30.501Z,29.24
2018-06-05T13:27:02.810Z,29.13
2018-06-05T13:29:29.952Z,29.17
2018-06-05T13:31:57.100Z,29.56
2018-06-05T13:34:24.256Z,29.49
2018-06-05T13:36:51.363Z,30.17
2018-06-05T13:39:18.633Z,29.33
2018-06-05T13:41:45.746Z,29.29
2018-06-05T13:44:12.888Z,29.25
2018-06-05T13:46:40.026Z,29.47
2018-06-05T13:49:07.149Z,29.14
2018-06-05T13:51:34.233Z,29.23
2018-06-05T13:54:01.371Z,28.99
2018-06-05T13:56:28.532Z,28.95
2018-06-05T13:58:55.676Z,29.59
2018-06-05T14:01:22.806Z,29.79
2018-06-05T14:03:49.969Z,29.69
2018-06-05T14:06:17.132Z,29.41
2018-06-05T14:08:44.299Z,30.30
2018-06-05T14:11:11.464Z,30.40
2018-06-05T14:13:38.617Z,29.60
2018-06-05T14:16:05.764Z,29.67
2018-06-05T14:18:32.866Z,30.26
2018-06-05T14:21:00.007Z,29.32
2018-06-05T14:23:27.209Z,29.61
2018-06-05T14:25:54.353Z,30.14
2018-06-05T14:28:21.516Z,29.44
2018-06-05T14:30:48.691Z,29.06
2018-06-05T14:33:15.830Z,28.82
2018-06-05T14:35:42.956Z,29.31
2018-06-05T14:38:10.124Z,29.16
2018-06-05T14:40:37.271Z,29.31
2018-06-05T14:43:04.393Z,29.63
2018-06-05T14:45:31.544Z,28.89
2018-06-05T14:47:58.688Z,29.03
2018-06-05T14:50:25.833Z,29.73
2018-06-05T14:52:52.996Z,29.61
2018-06-05T14:55:20.189Z,29.03
2018-06-05T14:57:47.385Z,28.94
2018-06-05T15:00:14.492Z,29.08
2018-06-05T15:02:41.617Z,28.73
2018-06-05T15:05:08.791Z,29.67
2018-06-05T15:07:35.942Z,29.01
2018-06-05T15:10:03.228Z,29.06
2018-06-05T15:12:30.407Z,28.09
2018-06-05T15:14:57.563Z,27.77
2018-06-05T15:17:24.754Z,28.21
2018-06-05T15:19:51.880Z,28.41
2018-06-05T15:22:19.022Z,28.33
2018-06-05T15:24:46.161Z,28.35
2018-06-05T15:27:13.297Z,28.63
2018-06-05T15:29:40.439Z,28.92
2018-06-05T15:32:07.590Z,28.55
2018-06-05T15:34:34.916Z,29.00
2018-06-05T15:37:02.124Z,28.82
2018-06-05T15:39:29.381Z,28.19
2018-06-05T15:41:56.674Z,28.03
2018-06-05T15:44:25.682Z,27.97
2018-06-05T15:46:53.983Z,27.86
2018-06-05T15:49:21.194Z,28.08
2018-06-05T15:51:48.320Z,28.11
2018-06-05T15:54:15.547Z,28.11
2018-06-05T15:56:42.688Z,27.57
2018-06-05T15:59:09.861Z,27.53
2018-06-05T16:01:37.003Z,27.55
2018-06-05T16:04:04.496Z,27.84
2018-06-05T16:06:31.602Z,27.97
2018-06-05T16:08:58.800Z,27.52
2018-06-05T16:11:25.950Z,27.54
2018-06-05T16:13:53.110Z,26.96
2018-06-05T16:16:20.292Z,26.80
2018-06-05T16:18:47.472Z,26.92
2018-06-05T16:21:14.608Z,27.21
2018-06-05T16:23:41.747Z,27.25
2018-06-05T16:26:08.893Z,27.34
2018-06-05T16:28:36.019Z,26.90
2018-06-05T16:31:03.190Z,26.90
2018-06-05T16:33:30.361Z,26.57
2018-06-05T16:35:57.552Z,26.63
2018-06-05T16:38:24.749Z,26.79
2018-06-05T16:40:51.957Z,26.80
2018-06-05T16:43:19.101Z,26.21
2018-06-05T16:45:46.349Z,26.56
2018-06-05T16:48:13.522Z,26.40
2018-06-05T16:50:40.677Z,26.49
2018-06-05T16:53:07.847Z,26.12
2018-06-05T16:55:35.000Z,26.22
2018-06-05T16:58:02.152Z,26.35
2018-06-05T17:00:29.305Z,26.46
2018-06-05T17:02:56.457Z,26.14
2018-06-05T17:05:23.648Z,26.00
2018-06-05T17:07:50.802Z,25.89
2018-06-05T17:10:17.941Z,26.03
2018-06-05T17:12:45.191Z,25.74
2018-06-05T17:15:12.416Z,25.76
2018-06-05T17:17:39.557Z,25.71
2018-06-05T17:20:06.713Z,26.02
2018-06-05T17:22:33.886Z,25.59
2018-06-05T17:25:01.061Z,25.62
2018-06-05T17:27:28.286Z,25.47
2018-06-05T17:29:55.363Z,25.31
2018-06-05T17:32:22.589Z,25.38
2018-06-05T17:34:49.794Z,25.16
2018-06-05T17:37:17.013Z,25.18
2018-06-05T17:39:44.177Z,25.05
2018-06-05T17:42:11.334Z,25.12
2018-06-05T17:44:38.536Z,24.76
2018-06-05T17:47:05.709Z,24.91
2018-06-05T17:49:32.860Z,25.00
2018-06-05T17:52:00.025Z,24.77
2018-06-05T17:54:27.234Z,24.63
2018-06-05T17:56:54.386Z,24.73
2018-06-05T17:59:21.558Z,24.73
2018-06-05T18:01:48.736Z,24.94
2018-06-05T18:04:15.926Z,24.87
2018-06-05T18:06:43.088Z,24.69
2018-06-05T18:09:10.237Z,24.41
2018-06-05T18:11:37.431Z,24.29
2018-06-05T18:14:04.550Z,24.20
2018-06-05T18:16:31.702Z,24.48
2018-06-05T18:18:58.881Z,24.39
2018-06-05T18:21:26.091Z,24.24
2018-06-05T18:23:53.381Z,24.27
2018-06-05T18:26:20.533Z,24.01
2018-06-05T18:28:47.646Z,24.07
2018-06-05T18:31:14.800Z,23.92
2018-06-05T18:33:41.970Z,23.79
2018-06-05T18:36:09.193Z,23.66
2018-06-05T18:38:36.337Z,23.76
2018-06-05T18:41:03.525Z,23.84
2018-06-05T18:43:30.693Z,23.75
2018-06-05T18:45:57.830Z,23.50
2018-06-05T18:48:24.999Z,23.54
2018-06-05T18:50:52.156Z,23.61
2018-06-05T18:53:26.164Z,23.54
2018-06-05T18:55:53.432Z,23.43
2018-06-05T18:58:20.592Z,23.26
2018-06-05T19:00:47.777Z,23.17
2018-06-05T19:03:15.028Z,22.70
2018-06-05T19:05:42.221Z,22.72
2018-06-05T19:08:09.374Z,22.36
2018-06-05T19:10:36.522Z,22.29
2018-06-05T19:13:03.672Z,22.41
2018-06-05T19:15:30.865Z,22.36
2018-06-05T19:17:58.078Z,22.22
2018-06-05T19:20:25.259Z,22.37
2018-06-05T19:22:52.366Z,22.36
2018-06-05T19:25:19.589Z,22.25
2018-06-05T19:27:46.763Z,22.33
2018-06-05T19:30:14.016Z,22.34
2018-06-05T19:32:41.204Z,22.47
2018-06-05T19:35:08.341Z,22.38
2018-06-05T19:37:35.489Z,22.25
2018-06-05T19:40:02.670Z,22.32
2018-06-05T19:42:29.845Z,22.17
2018-06-05T19:44:56.992Z,21.94
2018-06-05T19:47:24.149Z,21.96
2018-06-05T19:49:51.340Z,21.86
2018-06-05T19:52:18.493Z,21.85
2018-06-05T19:54:45.701Z,21.98
2018-06-05T19:57:13.891Z,21.75
2018-06-05T19:59:41.068Z,21.73
2018-06-05T20:02:08.225Z,21.53
2018-06-05T20:17:39.997Z,21.43
2018-06-05T20:20:07.260Z,21.23
2018-06-05T20:22:34.449Z,21.19
2018-06-05T20:25:01.650Z,21.00
2018-06-05T20:27:28.840Z,20.94
2018-06-05T20:29:55.978Z,20.99
2018-06-05T20:32:23.176Z,20.88
2018-06-05T20:34:50.373Z,20.85
2018-06-05T20:37:17.556Z,20.86
2018-06-05T20:39:44.728Z,20.65
2018-06-05T20:42:11.884Z,20.57
2018-06-05T20:44:39.061Z,20.37
2018-06-05T20:47:06.376Z,20.44
2018-06-05T20:49:33.578Z,20.60
2018-06-05T20:52:00.815Z,20.54
2018-06-05T20:54:27.934Z,20.56
2018-06-05T20:56:55.152Z,20.61
2018-06-05T20:59:22.340Z,20.47
2018-06-05T21:01:49.516Z,20.42
2018-06-05T21:04:16.854Z,20.42
2018-06-05T21:06:43.977Z,20.58
2018-06-05T21:09:11.167Z,20.56
2018-06-05T21:11:38.387Z,20.50
2018-06-05T21:14:05.504Z,20.27
2018-06-05T21:16:32.636Z,20.20
2018-06-05T21:18:59.778Z,20.17
2018-06-05T21:21:26.960Z,19.99
2018-06-05T21:23:54.086Z,19.97
2018-06-05T21:26:21.248Z,19.76
2018-06-05T21:28:48.395Z,19.90
2018-06-05T21:31:15.554Z,19.84
2018-06-05T21:33:42.813Z,20.07
2018-06-05T21:36:09.939Z,20.09
2018-06-05T21:38:37.124Z,20.18
2018-06-05T21:41:04.293Z,20.17
2018-06-05T21:43:31.412Z,19.76
2018-06-05T21:45:58.571Z,19.88
2018-06-05T21:48:25.720Z,19.90
2018-06-05T21:50:52.847Z,19.64
2018-06-05T21:53:19.983Z,19.65
2018-06-05T21:55:47.129Z,19.71
2018-06-05T21:58:14.368Z,19.71
2018-06-05T22:00:41.568Z,19.94
2018-06-05T22:03:08.717Z,19.66
2018-06-05T22:05:35.866Z,19.55
2018-06-05T22:08:03.015Z,19.59
2018-06-05T22:10:30.183Z,19.54
2018-06-05T22:12:57.293Z,19.41
2018-06-05T22:15:24.416Z,19.52
2018-06-05T22:17:51.593Z,19.47
2018-06-05T22:20:18.753Z,19.37
2018-06-05T22:22:45.908Z,19.34
2018-06-05T22:25:13.047Z,19.30
2018-06-05T22:27:40.179Z,19.38
2018-06-05T22:30:07.284Z,19.27
2018-06-05T22:32:34.427Z,19.38
2018-06-05T22:35:01.657Z,19.35
2018-06-05T22:37:28.799Z,19.21
2018-06-05T22:39:55.927Z,19.07
2018-06-05T22:42:23.037Z,19.25
2018-06-05T22:44:50.200Z,19.38
2018-06-05T22:47:17.336Z,19.32
2018-06-05T22:49:44.476Z,19.16
2018-06-05T22:52:11.585Z,19.27
2018-06-05T22:54:38.713Z,19.34
2018-06-05T22:57:05.913Z,19.19
2018-06-05T22:59:33.045Z,19.23
2018-06-05T23:02:00.226Z,19.01
2018-06-05T23:04:27.353Z,19.01
2018-06-05T23:06:54.507Z,18.93
2018-06-05T23:09:21.605Z,18.59
2018-06-05T23:11:48.714Z,18.71
2018-06-05T23:14:15.823Z,18.76
2018-06-05T23:16:43.032Z,18.73
2018-06-05T23:19:10.150Z,18.58
2018-06-05T23:21:37.297Z,18.57
2018-06-05T23:24:04.481Z,18.29
2018-06-05T23:26:31.688Z,18.39
2018-06-05T23:28:58.822Z,18.43
2018-06-05T23:31:25.972Z,18.36
2018-06-05T23:33:53.232Z,18.34
2018-06-05T23:36:20.321Z,18.59
2018-06-05T23:38:47.481Z,18.46
2018-06-05T23:41:14.580Z,18.24
2018-06-05T23:43:41.724Z,18.08
2018-06-05T23:46:08.835Z,18.24
2018-06-05T23:48:35.964Z,18.16
2018-06-05T23:51:03.075Z,18.03
2018-06-05T23:53:30.216Z,18.20
2018-06-05T23:55:57.372Z,18.11
2018-06-05T23:58:24.500Z,18.03
